sensor_id;sensor_type;location;lat;lon;timestamp;P1;durP1;ratioP1;P2;durP2;ratioP2
44428;SDS011;30134;47.866;-4.222;2023-05-10T00:01:32;32.10;;;15.10;;
44428;SDS011;30134;47.866;-4.222;2023-05-10T00:03:59;28.92;;;14.75;;
44428;SDS011;30134;47.866;-4.222;2023-05-10T00:06:25;29.00;;;14.63;;
44428;SDS011;30134;47.866;-4.222;2023-05-10T00:08:51;32.15;;;14.73;;
44428;SDS011;30134;47.866;-4.222;2023-05-10T00:11:17;29.90;;;15.23;;
44428;SDS011;30134;47.866;-4.222;2023-05-10T00:13:43;30.00;;;14.35;;
44428;SDS011;30134;47.866;-4.222;2023-05-10T00:16:09;29.60;;;13.18;;
44428;SDS011;30134;47.866;-4.222;2023-05-10T00:18:37;30.10;;;13.52;;
44428;SDS011;30134;47.866;-4.222;2023-05-10T00:21:03;29.17;;;13.60;;
44428;SDS011;30134;47.866;-4.222;2023-05-10T00:23:29;29.48;;;13.55;;
44428;SDS011;30134;47.866;-4.222;2023-05-10T00:25:55;27.15;;;12.77;;
44428;SDS011;30134;47.866;-4.222;2023-05-10T00:28:21;28.42;;;13.63;;
44428;SDS011;30134;47.866;-4.222;2023-05-10T00:30:48;28.33;;;12.68;;
44428;SDS011;30134;47.866;-4.222;2023-05-10T00:33:14;30.20;;;13.60;;
44428;SDS011;30134;47.866;-4.222;2023-05-10T00:35:40;27.98;;;13.02;;
44428;SDS011;30134;47.866;-4.222;2023-05-10T00:38:12;25.30;;;11.95;;
44428;SDS011;30134;47.866;-4.222;2023-05-10T00:40:38;25.98;;;12.43;;
44428;SDS011;30134;47.866;-4.222;2023-05-10T00:43:10;24.52;;;12.20;;
44428;SDS011;30134;47.866;-4.222;2023-05-10T00:45:37;24.75;;;11.55;;
44428;SDS011;30134;47.866;-4.222;2023-05-10T00:48:04;25.88;;;11.48;;
44428;SDS011;30134;47.866;-4.222;2023-05-10T00:50:30;24.63;;;12.32;;
44428;SDS011;30134;47.866;-4.222;2023-05-10T00:53:00;25.90;;;12.35;;
44428;SDS011;30134;47.866;-4.222;2023-05-10T00:55:27;25.27;;;11.05;;
44428;SDS011;30134;47.866;-4.222;2023-05-10T00:57:53;25.92;;;11.60;;
44428;SDS011;30134;47.866;-4.222;2023-05-10T01:00:19;25.65;;;11.82;;
44428;SDS011;30134;47.866;-4.222;2023-05-10T01:02:46;23.65;;;10.98;;
44428;SDS011;30134;47.866;-4.222;2023-05-10T01:05:12;25.35;;;11.57;;
44428;SDS011;30134;47.866;-4.222;2023-05-10T01:07:39;25.73;;;11.45;;
44428;SDS011;30134;47.866;-4.222;2023-05-10T01:10:06;24.05;;;11.32;;
44428;SDS011;30134;47.866;-4.222;2023-05-10T01:12:37;26.05;;;11.27;;
44428;SDS011;30134;47.866;-4.222;2023-05-10T01:15:06;27.05;;;11.23;;
44428;SDS011;30134;47.866;-4.222;2023-05-10T01:17:34;23.02;;;10.73;;
44428;SDS011;30134;47.866;-4.222;2023-05-10T01:20:02;25.67;;;11.30;;
44428;SDS011;30134;47.866;-4.222;2023-05-10T01:33:55;20.27;;;9.93;;
44428;SDS011;30134;47.866;-4.222;2023-05-10T01:36:51;22.80;;;9.85;;
44428;SDS011;30134;47.866;-4.222;2023-05-10T01:42:07;16.80;;;9.18;;
44428;SDS011;30134;47.866;-4.222;2023-05-10T01:47:20;20.45;;;9.52;;
44428;SDS011;30134;47.866;-4.222;2023-05-10T01:49:56;18.88;;;9.65;;
44428;SDS011;30134;47.866;-4.222;2023-05-10T01:52:37;21.80;;;8.88;;
44428;SDS011;30134;47.866;-4.222;2023-05-10T01:55:14;21.70;;;8.60;;
44428;SDS011;30134;47.866;-4.222;2023-05-10T01:57:43;17.10;;;8.45;;
44428;SDS011;30134;47.866;-4.222;2023-05-10T02:00:11;16.15;;;8.65;;
44428;SDS011;30134;47.866;-4.222;2023-05-10T02:02:40;18.92;;;8.73;;
44428;SDS011;30134;47.866;-4.222;2023-05-10T02:05:14;20.23;;;8.30;;
44428;SDS011;30134;47.866;-4.222;2023-05-10T02:07:42;17.67;;;8.05;;
44428;SDS011;30134;47.866;-4.222;2023-05-10T02:10:09;17.75;;;8.93;;
44428;SDS011;30134;47.866;-4.222;2023-05-10T02:12:37;19.30;;;8.70;;
44428;SDS011;30134;47.866;-4.222;2023-05-10T02:15:08;16.35;;;7.55;;
44428;SDS011;30134;47.866;-4.222;2023-05-10T02:17:38;15.95;;;8.35;;
44428;SDS011;30134;47.866;-4.222;2023-05-10T02:20:07;17.75;;;8.32;;
44428;SDS011;30134;47.866;-4.222;2023-05-10T02:22:35;17.48;;;7.80;;
44428;SDS011;30134;47.866;-4.222;2023-05-10T02:25:03;15.68;;;7.38;;
44428;SDS011;30134;47.866;-4.222;2023-05-10T02:27:30;15.95;;;7.50;;
44428;SDS011;30134;47.866;-4.222;2023-05-10T02:29:56;17.25;;;7.50;;
44428;SDS011;30134;47.866;-4.222;2023-05-10T02:32:24;17.00;;;7.97;;
44428;SDS011;30134;47.866;-4.222;2023-05-10T02:34:52;19.50;;;7.28;;
44428;SDS011;30134;47.866;-4.222;2023-05-10T02:37:20;16.70;;;7.32;;
44428;SDS011;30134;47.866;-4.222;2023-05-10T02:39:47;14.23;;;7.22;;
44428;SDS011;30134;47.866;-4.222;2023-05-10T02:42:16;12.63;;;6.72;;
44428;SDS011;30134;47.866;-4.222;2023-05-10T02:44:45;16.85;;;7.15;;
44428;SDS011;30134;47.866;-4.222;2023-05-10T02:47:15;15.80;;;7.07;;
44428;SDS011;30134;47.866;-4.222;2023-05-10T02:49:43;15.88;;;6.60;;
44428;SDS011;30134;47.866;-4.222;2023-05-10T02:52:09;17.00;;;6.75;;
44428;SDS011;30134;47.866;-4.222;2023-05-10T02:54:45;13.63;;;6.72;;
44428;SDS011;30134;47.866;-4.222;2023-05-10T02:57:16;14.85;;;6.57;;
44428;SDS011;30134;47.866;-4.222;2023-05-10T02:59:45;16.27;;;6.90;;
44428;SDS011;30134;47.866;-4.222;2023-05-10T03:02:12;14.68;;;7.20;;
44428;SDS011;30134;47.866;-4.222;2023-05-10T03:04:39;14.00;;;6.05;;
44428;SDS011;30134;47.866;-4.222;2023-05-10T03:07:05;11.68;;;6.20;;
44428;SDS011;30134;47.866;-4.222;2023-05-10T03:09:32;20.63;;;7.10;;
44428;SDS011;30134;47.866;-4.222;2023-05-10T03:20:03;14.10;;;5.65;;
44428;SDS011;30134;47.866;-4.222;2023-05-10T03:22:40;10.38;;;5.20;;
44428;SDS011;30134;47.866;-4.222;2023-05-10T03:25:12;12.07;;;5.60;;
44428;SDS011;30134;47.866;-4.222;2023-05-10T03:27:41;10.60;;;6.05;;
44428;SDS011;30134;47.866;-4.222;2023-05-10T03:30:12;11.65;;;5.63;;
44428;SDS011;30134;47.866;-4.222;2023-05-10T03:32:38;12.15;;;6.15;;
44428;SDS011;30134;47.866;-4.222;2023-05-10T03:35:10;12.25;;;5.18;;
44428;SDS011;30134;47.866;-4.222;2023-05-10T03:37:38;11.70;;;5.32;;
44428;SDS011;30134;47.866;-4.222;2023-05-10T03:40:06;11.70;;;5.38;;
44428;SDS011;30134;47.866;-4.222;2023-05-10T03:42:33;12.70;;;5.95;;
44428;SDS011;30134;47.866;-4.222;2023-05-10T03:44:59;11.15;;;5.60;;
44428;SDS011;30134;47.866;-4.222;2023-05-10T03:47:25;13.38;;;5.32;;
44428;SDS011;30134;47.866;-4.222;2023-05-10T03:49:51;11.65;;;5.50;;
44428;SDS011;30134;47.866;-4.222;2023-05-10T03:52:17;14.40;;;5.40;;
44428;SDS011;30134;47.866;-4.222;2023-05-10T03:54:43;14.75;;;5.07;;
44428;SDS011;30134;47.866;-4.222;2023-05-10T03:57:09;14.25;;;5.70;;
44428;SDS011;30134;47.866;-4.222;2023-05-10T03:59:35;12.90;;;5.05;;
44428;SDS011;30134;47.866;-4.222;2023-05-10T04:02:01;10.32;;;5.05;;
44428;SDS011;30134;47.866;-4.222;2023-05-10T04:04:27;11.35;;;4.93;;
44428;SDS011;30134;47.866;-4.222;2023-05-10T04:06:53;11.45;;;5.22;;
44428;SDS011;30134;47.866;-4.222;2023-05-10T04:09:19;8.93;;;4.55;;
44428;SDS011;30134;47.866;-4.222;2023-05-10T04:11:45;9.68;;;4.63;;
44428;SDS011;30134;47.866;-4.222;2023-05-10T04:14:12;12.00;;;4.93;;
44428;SDS011;30134;47.866;-4.222;2023-05-10T04:16:38;11.50;;;5.03;;
44428;SDS011;30134;47.866;-4.222;2023-05-10T04:19:04;10.85;;;4.70;;
44428;SDS011;30134;47.866;-4.222;2023-05-10T04:21:30;9.02;;;4.25;;
44428;SDS011;30134;47.866;-4.222;2023-05-10T04:23:55;10.35;;;4.60;;
44428;SDS011;30134;47.866;-4.222;2023-05-10T04:26:22;9.73;;;4.40;;
44428;SDS011;30134;47.866;-4.222;2023-05-10T04:28:48;9.93;;;4.47;;
44428;SDS011;30134;47.866;-4.222;2023-05-10T04:31:14;9.30;;;4.57;;
44428;SDS011;30134;47.866;-4.222;2023-05-10T04:33:40;10.25;;;4.30;;
44428;SDS011;30134;47.866;-4.222;2023-05-10T04:36:06;11.00;;;4.50;;
44428;SDS011;30134;47.866;-4.222;2023-05-10T04:38:32;11.27;;;4.85;;
44428;SDS011;30134;47.866;-4.222;2023-05-10T04:41:07;11.05;;;4.55;;
44428;SDS011;30134;47.866;-4.222;2023-05-10T04:43:35;8.63;;;4.18;;
44428;SDS011;30134;47.866;-4.222;2023-05-10T04:46:02;12.82;;;4.55;;
44428;SDS011;30134;47.866;-4.222;2023-05-10T04:48:29;11.50;;;4.80;;
44428;SDS011;30134;47.866;-4.222;2023-05-10T04:50:55;9.52;;;4.60;;
44428;SDS011;30134;47.866;-4.222;2023-05-10T04:53:21;9.27;;;4.40;;
44428;SDS011;30134;47.866;-4.222;2023-05-10T04:55:47;10.63;;;4.47;;
44428;SDS011;30134;47.866;-4.222;2023-05-10T04:58:14;9.75;;;4.40;;
44428;SDS011;30134;47.866;-4.222;2023-05-10T05:00:40;10.27;;;4.30;;
44428;SDS011;30134;47.866;-4.222;2023-05-10T05:03:06;8.50;;;4.57;;
44428;SDS011;30134;47.866;-4.222;2023-05-10T05:05:32;8.73;;;3.95;;
44428;SDS011;30134;47.866;-4.222;2023-05-10T05:07:58;9.30;;;3.70;;
44428;SDS011;30134;47.866;-4.222;2023-05-10T05:10:24;8.13;;;4.18;;
44428;SDS011;30134;47.866;-4.222;2023-05-10T05:12:50;10.27;;;4.13;;
44428;SDS011;30134;47.866;-4.222;2023-05-10T05:15:16;10.20;;;4.32;;
44428;SDS011;30134;47.866;-4.222;2023-05-10T05:17:43;8.38;;;4.57;;
44428;SDS011;30134;47.866;-4.222;2023-05-10T05:20:09;8.13;;;3.95;;
44428;SDS011;30134;47.866;-4.222;2023-05-10T05:22:36;8.68;;;3.90;;
44428;SDS011;30134;47.866;-4.222;2023-05-10T05:25:05;7.72;;;3.30;;
44428;SDS011;30134;47.866;-4.222;2023-05-10T05:27:32;11.93;;;3.83;;
44428;SDS011;30134;47.866;-4.222;2023-05-10T05:29:58;8.60;;;3.85;;
44428;SDS011;30134;47.866;-4.222;2023-05-10T05:32:24;7.20;;;3.50;;
44428;SDS011;30134;47.866;-4.222;2023-05-10T05:34:50;8.43;;;3.63;;
44428;SDS011;30134;47.866;-4.222;2023-05-10T05:37:20;9.13;;;3.72;;
44428;SDS011;30134;47.866;-4.222;2023-05-10T05:39:47;7.05;;;3.42;;
44428;SDS011;30134;47.866;-4.222;2023-05-10T05:42:13;8.02;;;3.63;;
44428;SDS011;30134;47.866;-4.222;2023-05-10T05:44:41;8.32;;;3.80;;
44428;SDS011;30134;47.866;-4.222;2023-05-10T05:47:07;7.53;;;3.67;;
44428;SDS011;30134;47.866;-4.222;2023-05-10T05:49:33;9.52;;;3.58;;
44428;SDS011;30134;47.866;-4.222;2023-05-10T05:52:00;9.13;;;3.78;;
44428;SDS011;30134;47.866;-4.222;2023-05-10T05:54:27;9.73;;;3.80;;
44428;SDS011;30134;47.866;-4.222;2023-05-10T05:56:54;6.82;;;3.45;;
44428;SDS011;30134;47.866;-4.222;2023-05-10T05:59:22;10.43;;;3.97;;
44428;SDS011;30134;47.866;-4.222;2023-05-10T06:01:48;8.52;;;3.45;;
44428;SDS011;30134;47.866;-4.222;2023-05-10T06:04:14;7.05;;;3.58;;
44428;SDS011;30134;47.866;-4.222;2023-05-10T06:06:41;6.53;;;3.08;;
44428;SDS011;30134;47.866;-4.222;2023-05-10T06:09:07;7.40;;;3.30;;
44428;SDS011;30134;47.866;-4.222;2023-05-10T06:11:34;8.52;;;3.42;;
44428;SDS011;30134;47.866;-4.222;2023-05-10T06:14:01;7.45;;;3.35;;
44428;SDS011;30134;47.866;-4.222;2023-05-10T06:16:29;6.30;;;3.38;;
44428;SDS011;30134;47.866;-4.222;2023-05-10T06:18:56;6.97;;;3.03;;
44428;SDS011;30134;47.866;-4.222;2023-05-10T06:21:22;7.30;;;3.30;;
44428;SDS011;30134;47.866;-4.222;2023-05-10T06:23:48;6.95;;;3.30;;
44428;SDS011;30134;47.866;-4.222;2023-05-10T06:26:14;9.75;;;3.10;;
44428;SDS011;30134;47.866;-4.222;2023-05-10T06:28:40;8.95;;;3.40;;
44428;SDS011;30134;47.866;-4.222;2023-05-10T06:31:06;8.30;;;3.47;;
44428;SDS011;30134;47.866;-4.222;2023-05-10T06:33:33;6.45;;;3.20;;
44428;SDS011;30134;47.866;-4.222;2023-05-10T06:35:59;8.68;;;3.35;;
44428;SDS011;30134;47.866;-4.222;2023-05-10T06:38:25;7.57;;;3.38;;
44428;SDS011;30134;47.866;-4.222;2023-05-10T06:40:51;8.75;;;3.38;;
44428;SDS011;30134;47.866;-4.222;2023-05-10T06:43:17;10.10;;;3.92;;
44428;SDS011;30134;47.866;-4.222;2023-05-10T06:45:43;10.90;;;3.65;;
44428;SDS011;30134;47.866;-4.222;2023-05-10T06:48:09;16.88;;;3.45;;
44428;SDS011;30134;47.866;-4.222;2023-05-10T06:50:35;12.77;;;3.65;;
44428;SDS011;30134;47.866;-4.222;2023-05-10T06:53:01;16.90;;;4.50;;
44428;SDS011;30134;47.866;-4.222;2023-05-10T06:55:27;16.45;;;4.25;;
44428;SDS011;30134;47.866;-4.222;2023-05-10T06:57:54;17.33;;;4.50;;
44428;SDS011;30134;47.866;-4.222;2023-05-10T07:00:20;18.05;;;4.75;;
44428;SDS011;30134;47.866;-4.222;2023-05-10T07:02:46;13.50;;;3.60;;
44428;SDS011;30134;47.866;-4.222;2023-05-10T07:05:12;16.80;;;3.80;;
44428;SDS011;30134;47.866;-4.222;2023-05-10T07:07:40;14.43;;;4.38;;
44428;SDS011;30134;47.866;-4.222;2023-05-10T07:10:06;12.95;;;3.83;;
44428;SDS011;30134;47.866;-4.222;2023-05-10T07:12:33;15.05;;;3.75;;
44428;SDS011;30134;47.866;-4.222;2023-05-10T07:14:59;13.02;;;4.18;;
44428;SDS011;30134;47.866;-4.222;2023-05-10T07:17:25;14.98;;;4.25;;
44428;SDS011;30134;47.866;-4.222;2023-05-10T07:19:51;12.50;;;3.92;;
44428;SDS011;30134;47.866;-4.222;2023-05-10T07:22:17;12.68;;;3.72;;
44428;SDS011;30134;47.866;-4.222;2023-05-10T07:24:43;10.35;;;3.80;;
44428;SDS011;30134;47.866;-4.222;2023-05-10T07:27:09;13.63;;;4.15;;
44428;SDS011;30134;47.866;-4.222;2023-05-10T07:29:35;9.10;;;3.67;;
44428;SDS011;30134;47.866;-4.222;2023-05-10T07:32:02;15.68;;;3.78;;
44428;SDS011;30134;47.866;-4.222;2023-05-10T07:34:28;12.82;;;4.13;;
44428;SDS011;30134;47.866;-4.222;2023-05-10T07:36:56;12.75;;;3.60;;
44428;SDS011;30134;47.866;-4.222;2023-05-10T07:39:25;10.80;;;3.63;;
44428;SDS011;30134;47.866;-4.222;2023-05-10T07:41:52;14.93;;;3.85;;
44428;SDS011;30134;47.866;-4.222;2023-05-10T07:44:22;16.75;;;4.07;;
44428;SDS011;30134;47.866;-4.222;2023-05-10T07:46:48;14.10;;;4.03;;
44428;SDS011;30134;47.866;-4.222;2023-05-10T07:49:14;18.30;;;4.10;;
44428;SDS011;30134;47.866;-4.222;2023-05-10T07:51:41;15.65;;;3.70;;
44428;SDS011;30134;47.866;-4.222;2023-05-10T07:54:07;11.63;;;3.20;;
44428;SDS011;30134;47.866;-4.222;2023-05-10T07:56:33;15.30;;;3.88;;
44428;SDS011;30134;47.866;-4.222;2023-05-10T07:59:00;12.55;;;3.80;;
44428;SDS011;30134;47.866;-4.222;2023-05-10T08:01:32;14.00;;;3.60;;
44428;SDS011;30134;47.866;-4.222;2023-05-10T08:03:59;10.65;;;3.08;;
44428;SDS011;30134;47.866;-4.222;2023-05-10T08:06:26;11.40;;;3.42;;
44428;SDS011;30134;47.866;-4.222;2023-05-10T08:08:55;12.52;;;3.13;;
44428;SDS011;30134;47.866;-4.222;2023-05-10T08:11:21;10.68;;;3.00;;
44428;SDS011;30134;47.866;-4.222;2023-05-10T08:13:48;9.23;;;3.17;;
44428;SDS011;30134;47.866;-4.222;2023-05-10T08:16:15;11.15;;;3.38;;
44428;SDS011;30134;47.866;-4.222;2023-05-10T08:18:43;11.27;;;3.60;;
44428;SDS011;30134;47.866;-4.222;2023-05-10T08:21:11;12.38;;;3.40;;
44428;SDS011;30134;47.866;-4.222;2023-05-10T08:23:38;9.48;;;3.35;;
44428;SDS011;30134;47.866;-4.222;2023-05-10T08:26:05;10.05;;;3.15;;
44428;SDS011;30134;47.866;-4.222;2023-05-10T08:28:31;13.68;;;3.33;;
44428;SDS011;30134;47.866;-4.222;2023-05-10T08:30:57;13.77;;;3.58;;
44428;SDS011;30134;47.866;-4.222;2023-05-10T08:33:24;11.43;;;3.05;;
44428;SDS011;30134;47.866;-4.222;2023-05-10T08:35:50;14.48;;;3.80;;
44428;SDS011;30134;47.866;-4.222;2023-05-10T08:38:16;11.73;;;3.70;;
44428;SDS011;30134;47.866;-4.222;2023-05-10T08:40:43;12.27;;;3.45;;
44428;SDS011;30134;47.866;-4.222;2023-05-10T08:43:11;12.73;;;3.28;;
44428;SDS011;30134;47.866;-4.222;2023-05-10T08:45:42;10.13;;;3.40;;
44428;SDS011;30134;47.866;-4.222;2023-05-10T08:48:13;13.60;;;3.80;;
44428;SDS011;30134;47.866;-4.222;2023-05-10T08:50:40;10.63;;;2.97;;
44428;SDS011;30134;47.866;-4.222;2023-05-10T08:53:14;17.45;;;3.13;;
44428;SDS011;30134;47.866;-4.222;2023-05-10T08:55:41;11.55;;;3.20;;
44428;SDS011;30134;47.866;-4.222;2023-05-10T08:58:08;12.25;;;3.88;;
44428;SDS011;30134;47.866;-4.222;2023-05-10T09:00:34;10.00;;;3.50;;
44428;SDS011;30134;47.866;-4.222;2023-05-10T09:03:03;10.68;;;3.20;;
44428;SDS011;30134;47.866;-4.222;2023-05-10T09:05:31;11.82;;;3.00;;
44428;SDS011;30134;47.866;-4.222;2023-05-10T09:07:57;13.50;;;3.05;;
44428;SDS011;30134;47.866;-4.222;2023-05-10T09:10:25;11.73;;;3.17;;
44428;SDS011;30134;47.866;-4.222;2023-05-10T09:12:53;8.82;;;3.00;;
44428;SDS011;30134;47.866;-4.222;2023-05-10T09:15:21;12.25;;;3.40;;
44428;SDS011;30134;47.866;-4.222;2023-05-10T09:17:47;13.30;;;4.30;;
44428;SDS011;30134;47.866;-4.222;2023-05-10T09:20:15;23.15;;;6.70;;
44428;SDS011;30134;47.866;-4.222;2023-05-10T09:22:42;25.60;;;8.45;;
44428;SDS011;30134;47.866;-4.222;2023-05-10T09:25:10;34.60;;;9.85;;
44428;SDS011;30134;47.866;-4.222;2023-05-10T09:27:41;34.60;;;11.07;;
44428;SDS011;30134;47.866;-4.222;2023-05-10T09:32:43;28.92;;;10.63;;
44428;SDS011;30134;47.866;-4.222;2023-05-10T09:35:13;33.88;;;10.98;;
44428;SDS011;30134;47.866;-4.222;2023-05-10T09:37:47;33.00;;;10.85;;
44428;SDS011;30134;47.866;-4.222;2023-05-10T09:40:15;35.85;;;10.45;;
44428;SDS011;30134;47.866;-4.222;2023-05-10T09:45:29;28.63;;;10.70;;
44428;SDS011;30134;47.866;-4.222;2023-05-10T09:47:57;25.40;;;9.25;;
44428;SDS011;30134;47.866;-4.222;2023-05-10T09:50:25;27.00;;;9.82;;
44428;SDS011;30134;47.866;-4.222;2023-05-10T09:52:59;24.35;;;8.15;;
44428;SDS011;30134;47.866;-4.222;2023-05-10T09:55:41;30.77;;;9.27;;
44428;SDS011;30134;47.866;-4.222;2023-05-10T09:58:11;29.13;;;9.48;;
44428;SDS011;30134;47.866;-4.222;2023-05-10T10:00:42;25.05;;;8.68;;
44428;SDS011;30134;47.866;-4.222;2023-05-10T10:03:16;21.83;;;7.18;;
44428;SDS011;30134;47.866;-4.222;2023-05-10T10:05:45;23.45;;;7.65;;
44428;SDS011;30134;47.866;-4.222;2023-05-10T10:08:13;21.60;;;7.80;;
44428;SDS011;30134;47.866;-4.222;2023-05-10T10:10:40;18.25;;;6.57;;
44428;SDS011;30134;47.866;-4.222;2023-05-10T10:13:09;23.58;;;7.07;;
44428;SDS011;30134;47.866;-4.222;2023-05-10T10:15:35;18.17;;;6.38;;
44428;SDS011;30134;47.866;-4.222;2023-05-10T10:18:04;19.30;;;5.78;;
44428;SDS011;30134;47.866;-4.222;2023-05-10T10:20:31;21.73;;;6.72;;
44428;SDS011;30134;47.866;-4.222;2023-05-10T10:22:57;17.65;;;5.40;;
44428;SDS011;30134;47.866;-4.222;2023-05-10T10:25:23;18.83;;;5.70;;
44428;SDS011;30134;47.866;-4.222;2023-05-10T10:36:12;15.43;;;4.63;;
44428;SDS011;30134;47.866;-4.222;2023-05-10T10:41:34;12.82;;;4.05;;
44428;SDS011;30134;47.866;-4.222;2023-05-10T10:52:27;8.90;;;3.45;;
44428;SDS011;30134;47.866;-4.222;2023-05-10T10:55:09;12.63;;;3.70;;
44428;SDS011;30134;47.866;-4.222;2023-05-10T11:00:33;11.68;;;3.90;;
44428;SDS011;30134;47.866;-4.222;2023-05-10T11:03:09;12.52;;;3.90;;
44428;SDS011;30134;47.866;-4.222;2023-05-10T11:05:42;15.10;;;4.68;;
44428;SDS011;30134;47.866;-4.222;2023-05-10T11:08:51;13.85;;;4.38;;
44428;SDS011;30134;47.866;-4.222;2023-05-10T11:11:07;13.68;;;4.13;;
44428;SDS011;30134;47.866;-4.222;2023-05-10T11:16:12;13.13;;;4.68;;
44428;SDS011;30134;47.866;-4.222;2023-05-10T11:19:06;13.57;;;5.00;;
44428;SDS011;30134;47.866;-4.222;2023-05-10T11:21:44;13.88;;;4.85;;
44428;SDS011;30134;47.866;-4.222;2023-05-10T11:24:56;11.85;;;4.97;;
44428;SDS011;30134;47.866;-4.222;2023-05-10T11:27:25;16.08;;;6.80;;
44428;SDS011;30134;47.866;-4.222;2023-05-10T11:29:51;23.55;;;9.38;;
44428;SDS011;30134;47.866;-4.222;2023-05-10T11:32:17;31.48;;;13.38;;
44428;SDS011;30134;47.866;-4.222;2023-05-10T11:34:46;40.08;;;14.82;;
44428;SDS011;30134;47.866;-4.222;2023-05-10T11:37:13;37.55;;;14.93;;
44428;SDS011;30134;47.866;-4.222;2023-05-10T11:39:45;43.00;;;16.27;;
44428;SDS011;30134;47.866;-4.222;2023-05-10T11:42:12;39.20;;;15.63;;
44428;SDS011;30134;47.866;-4.222;2023-05-10T11:44:38;39.38;;;16.50;;
44428;SDS011;30134;47.866;-4.222;2023-05-10T11:47:05;38.58;;;15.63;;
44428;SDS011;30134;47.866;-4.222;2023-05-10T11:49:32;37.33;;;14.82;;
44428;SDS011;30134;47.866;-4.222;2023-05-10T11:52:07;39.97;;;15.57;;
44428;SDS011;30134;47.866;-4.222;2023-05-10T11:54:36;42.35;;;15.63;;
44428;SDS011;30134;47.866;-4.222;2023-05-10T11:57:02;36.47;;;13.95;;
44428;SDS011;30134;47.866;-4.222;2023-05-10T11:59:29;38.15;;;13.93;;
44428;SDS011;30134;47.866;-4.222;2023-05-10T12:01:55;34.42;;;13.50;;
44428;SDS011;30134;47.866;-4.222;2023-05-10T12:04:21;33.58;;;12.88;;
44428;SDS011;30134;47.866;-4.222;2023-05-10T12:06:47;36.38;;;13.88;;
44428;SDS011;30134;47.866;-4.222;2023-05-10T12:09:13;31.00;;;12.90;;
44428;SDS011;30134;47.866;-4.222;2023-05-10T12:11:40;35.80;;;13.88;;
44428;SDS011;30134;47.866;-4.222;2023-05-10T12:14:06;29.50;;;11.27;;
44428;SDS011;30134;47.866;-4.222;2023-05-10T12:16:37;28.67;;;10.68;;
44428;SDS011;30134;47.866;-4.222;2023-05-10T12:19:03;30.77;;;11.63;;
44428;SDS011;30134;47.866;-4.222;2023-05-10T12:21:30;25.27;;;10.45;;
44428;SDS011;30134;47.866;-4.222;2023-05-10T12:24:00;28.17;;;10.90;;
44428;SDS011;30134;47.866;-4.222;2023-05-10T12:26:28;26.13;;;10.15;;
44428;SDS011;30134;47.866;-4.222;2023-05-10T12:29:10;27.92;;;9.77;;
44428;SDS011;30134;47.866;-4.222;2023-05-10T12:31:51;21.95;;;9.02;;
44428;SDS011;30134;47.866;-4.222;2023-05-10T12:34:34;24.98;;;9.85;;
44428;SDS011;30134;47.866;-4.222;2023-05-10T12:37:03;25.77;;;9.52;;
44428;SDS011;30134;47.866;-4.222;2023-05-10T12:39:40;22.10;;;9.60;;
44428;SDS011;30134;47.866;-4.222;2023-05-10T12:42:11;22.25;;;8.68;;
44428;SDS011;30134;47.866;-4.222;2023-05-10T12:44:37;23.48;;;9.13;;
44428;SDS011;30134;47.866;-4.222;2023-05-10T12:47:04;34.28;;;9.70;;
44428;SDS011;30134;47.866;-4.222;2023-05-10T12:49:30;25.75;;;7.85;;
44428;SDS011;30134;47.866;-4.222;2023-05-10T12:51:57;24.20;;;9.13;;
44428;SDS011;30134;47.866;-4.222;2023-05-10T12:54:26;33.65;;;8.40;;
44428;SDS011;30134;47.866;-4.222;2023-05-10T12:56:52;36.00;;;8.88;;
44428;SDS011;30134;47.866;-4.222;2023-05-10T12:59:18;21.35;;;7.20;;
44428;SDS011;30134;47.866;-4.222;2023-05-10T13:01:44;28.25;;;8.02;;
44428;SDS011;30134;47.866;-4.222;2023-05-10T13:04:10;26.17;;;7.55;;
44428;SDS011;30134;47.866;-4.222;2023-05-10T13:06:36;26.45;;;7.32;;
44428;SDS011;30134;47.866;-4.222;2023-05-10T13:09:03;21.50;;;7.47;;
44428;SDS011;30134;47.866;-4.222;2023-05-10T13:11:31;25.27;;;6.85;;
44428;SDS011;30134;47.866;-4.222;2023-05-10T13:13:58;23.90;;;6.45;;
44428;SDS011;30134;47.866;-4.222;2023-05-10T13:16:24;24.60;;;6.45;;
44428;SDS011;30134;47.866;-4.222;2023-05-10T13:18:50;27.95;;;6.43;;
44428;SDS011;30134;47.866;-4.222;2023-05-10T13:21:16;32.97;;;7.03;;
44428;SDS011;30134;47.866;-4.222;2023-05-10T13:23:42;17.30;;;5.80;;
44428;SDS011;30134;47.866;-4.222;2023-05-10T13:26:08;18.60;;;6.10;;
44428;SDS011;30134;47.866;-4.222;2023-05-10T13:28:34;16.33;;;5.70;;
44428;SDS011;30134;47.866;-4.222;2023-05-10T13:31:00;15.95;;;4.80;;
44428;SDS011;30134;47.866;-4.222;2023-05-10T13:33:26;20.17;;;5.95;;
44428;SDS011;30134;47.866;-4.222;2023-05-10T13:35:52;21.88;;;5.82;;
44428;SDS011;30134;47.866;-4.222;2023-05-10T13:38:18;21.70;;;4.97;;
44428;SDS011;30134;47.866;-4.222;2023-05-10T13:40:45;14.68;;;4.70;;
44428;SDS011;30134;47.866;-4.222;2023-05-10T13:43:11;15.02;;;4.65;;
44428;SDS011;30134;47.866;-4.222;2023-05-10T13:45:37;14.10;;;4.55;;
44428;SDS011;30134;47.866;-4.222;2023-05-10T13:48:03;15.63;;;5.00;;
44428;SDS011;30134;47.866;-4.222;2023-05-10T13:50:30;16.27;;;5.45;;
44428;SDS011;30134;47.866;-4.222;2023-05-10T13:52:56;19.13;;;4.72;;
44428;SDS011;30134;47.866;-4.222;2023-05-10T13:55:23;12.65;;;4.60;;
44428;SDS011;30134;47.866;-4.222;2023-05-10T13:57:49;13.82;;;4.65;;
44428;SDS011;30134;47.866;-4.222;2023-05-10T14:00:15;15.75;;;4.32;;
44428;SDS011;30134;47.866;-4.222;2023-05-10T14:02:41;17.55;;;5.25;;
44428;SDS011;30134;47.866;-4.222;2023-05-10T14:05:08;14.05;;;4.05;;
44428;SDS011;30134;47.866;-4.222;2023-05-10T14:07:34;11.57;;;4.03;;
44428;SDS011;30134;47.866;-4.222;2023-05-10T14:10:00;15.68;;;4.75;;
44428;SDS011;30134;47.866;-4.222;2023-05-10T14:12:26;15.30;;;3.85;;
44428;SDS011;30134;47.866;-4.222;2023-05-10T14:14:52;15.27;;;4.18;;
44428;SDS011;30134;47.866;-4.222;2023-05-10T14:17:18;11.65;;;4.13;;
44428;SDS011;30134;47.866;-4.222;2023-05-10T14:19:44;12.65;;;3.78;;
44428;SDS011;30134;47.866;-4.222;2023-05-10T14:22:10;14.00;;;3.72;;
44428;SDS011;30134;47.866;-4.222;2023-05-10T14:24:37;12.55;;;4.05;;
44428;SDS011;30134;47.866;-4.222;2023-05-10T14:27:03;8.07;;;3.35;;
44428;SDS011;30134;47.866;-4.222;2023-05-10T14:29:29;9.80;;;3.45;;
44428;SDS011;30134;47.866;-4.222;2023-05-10T14:31:55;14.23;;;3.05;;
44428;SDS011;30134;47.866;-4.222;2023-05-10T14:34:21;9.27;;;2.97;;
44428;SDS011;30134;47.866;-4.222;2023-05-10T14:36:47;11.68;;;3.53;;
44428;SDS011;30134;47.866;-4.222;2023-05-10T14:39:13;14.07;;;3.95;;
44428;SDS011;30134;47.866;-4.222;2023-05-10T14:41:39;11.23;;;3.35;;
44428;SDS011;30134;47.866;-4.222;2023-05-10T14:44:09;9.88;;;3.67;;
44428;SDS011;30134;47.866;-4.222;2023-05-10T14:46:35;10.85;;;3.25;;
44428;SDS011;30134;47.866;-4.222;2023-05-10T14:49:02;7.28;;;3.03;;
44428;SDS011;30134;47.866;-4.222;2023-05-10T14:51:28;9.23;;;3.03;;
44428;SDS011;30134;47.866;-4.222;2023-05-10T14:53:54;7.93;;;3.00;;
44428;SDS011;30134;47.866;-4.222;2023-05-10T14:56:20;7.55;;;3.20;;
44428;SDS011;30134;47.866;-4.222;2023-05-10T14:58:46;8.82;;;3.40;;
44428;SDS011;30134;47.866;-4.222;2023-05-10T15:01:12;8.05;;;3.08;;
44428;SDS011;30134;47.866;-4.222;2023-05-10T15:03:38;7.70;;;2.63;;
44428;SDS011;30134;47.866;-4.222;2023-05-10T15:06:04;7.88;;;2.72;;
44428;SDS011;30134;47.866;-4.222;2023-05-10T15:08:30;10.02;;;2.97;;
44428;SDS011;30134;47.866;-4.222;2023-05-10T15:10:56;6.82;;;2.72;;
44428;SDS011;30134;47.866;-4.222;2023-05-10T15:13:22;7.07;;;2.85;;
44428;SDS011;30134;47.866;-4.222;2023-05-10T15:15:48;6.60;;;2.50;;
44428;SDS011;30134;47.866;-4.222;2023-05-10T15:18:14;7.53;;;2.45;;
44428;SDS011;30134;47.866;-4.222;2023-05-10T15:20:40;6.82;;;2.83;;